createdAt,value
2018-02-27T00:02:05.185Z,-4.50
2018-02-27T00:03:06.933Z,-4.50
2018-02-27T00:04:08.595Z,-4.50
2018-02-27T00:05:10.011Z,-4.50
2018-02-27T00:06:11.415Z,-4.50
2018-02-27T00:07:12.841Z,-4.60
2018-02-27T00:08:14.271Z,-4.60
2018-02-27T00:09:16.723Z,-4.60
2018-02-27T00:10:18.123Z,-4.60
2018-02-27T00:11:19.526Z,-4.60
2018-02-27T00:12:20.924Z,-4.60
2018-02-27T00:13:22.317Z,-4.60
2018-02-27T00:14:24.735Z,-4.60
2018-02-27T00:15:27.263Z,-4.60
2018-02-27T00:16:30.153Z,-4.50
2018-02-27T00:17:32.154Z,-4.50
2018-02-27T00:18:34.181Z,-4.50
2018-02-27T00:20:40.399Z,-4.50
2018-02-27T00:21:41.785Z,-4.50
2018-02-27T00:22:43.202Z,-4.50
2018-02-27T00:23:45.721Z,-4.50
2018-02-27T00:25:20.413Z,-4.40
2018-02-27T00:28:06.362Z,-4.40
2018-02-27T00:29:07.938Z,-4.40
2018-02-27T00:31:07.316Z,-4.40
2018-02-27T00:33:11.829Z,-4.40
2018-02-27T00:34:13.985Z,-4.40
2018-02-27T00:35:15.396Z,-4.40
2018-02-27T00:36:16.814Z,-4.40
2018-02-27T00:37:18.214Z,-4.40
2018-02-27T00:38:19.597Z,-4.40
2018-02-27T00:40:24.498Z,-4.40
2018-02-27T00:41:27.799Z,-4.40
2018-02-27T00:42:29.194Z,-4.40
2018-02-27T00:43:30.593Z,-4.40
2018-02-27T00:44:34.002Z,-4.40
2018-02-27T00:45:37.201Z,-4.40
2018-02-27T00:46:39.214Z,-4.40
2018-02-27T00:48:43.710Z,-4.40
2018-02-27T00:49:45.123Z,-4.30
2018-02-27T00:52:12.316Z,-4.30
2018-02-27T00:53:13.737Z,-4.30
2018-02-27T00:54:15.133Z,-4.30
2018-02-27T00:55:16.522Z,-4.30
2018-02-27T00:56:17.907Z,-4.30
2018-02-27T00:57:19.311Z,-4.30
2018-02-27T00:58:20.693Z,-4.30
2018-02-27T00:59:22.081Z,-4.30
2018-02-27T01:00:24.506Z,-4.30
2018-02-27T01:01:26.751Z,-4.20
2018-02-27T01:02:28.160Z,-4.30
2018-02-27T01:03:29.557Z,-4.30
2018-02-27T01:04:31.980Z,-4.20
2018-02-27T01:05:33.907Z,-4.30
2018-02-27T01:06:35.781Z,-4.20
2018-02-27T01:08:57.173Z,-4.20
2018-02-27T01:10:40.133Z,-4.20
2018-02-27T01:11:41.907Z,-4.20
2018-02-27T01:12:44.069Z,-4.30
2018-02-27T01:13:46.958Z,-4.20
2018-02-27T01:14:48.345Z,-4.20
2018-02-27T01:15:49.733Z,-4.20
2018-02-27T01:16:51.238Z,-4.20
2018-02-27T01:17:53.695Z,-4.30
2018-02-27T01:19:58.193Z,-4.30
2018-02-27T01:22:48.018Z,-4.30
2018-02-27T01:23:49.725Z,-4.30
2018-02-27T01:24:51.861Z,-4.30
2018-02-27T01:25:53.393Z,-4.30
2018-02-27T01:26:54.985Z,-4.30
2018-02-27T01:27:56.527Z,-4.40
2018-02-27T01:28:57.947Z,-4.30
2018-02-27T01:30:00.102Z,-4.40
2018-02-27T01:31:48.962Z,-4.40
2018-02-27T01:33:27.074Z,-4.40
2018-02-27T01:34:28.769Z,-4.30
2018-02-27T01:38:35.011Z,-4.40
2018-02-27T01:40:54.565Z,-4.30
2018-02-27T01:41:56.762Z,-4.40
2018-02-27T01:42:58.133Z,-4.40
2018-02-27T01:44:00.273Z,-4.40
2018-02-27T01:45:03.347Z,-4.40
2018-02-27T01:46:05.436Z,-4.40
2018-02-27T01:47:07.106Z,-4.40
2018-02-27T01:48:08.712Z,-4.40
2018-02-27T01:49:10.175Z,-4.40
2018-02-27T01:50:11.558Z,-4.40
2018-02-27T01:51:14.073Z,-4.40
2018-02-27T01:52:16.586Z,-4.40
2018-02-27T01:53:17.974Z,-4.40
2018-02-27T01:54:19.366Z,-4.40
2018-02-27T01:55:20.765Z,-4.40
2018-02-27T01:56:22.157Z,-4.40
2018-02-27T01:57:23.655Z,-4.40
2018-02-27T01:58:25.302Z,-4.40
2018-02-27T01:59:27.457Z,-4.40
2018-02-27T02:00:28.851Z,-4.40
2018-02-27T02:01:30.581Z,-4.40
2018-02-27T02:02:33.370Z,-4.40
2018-02-27T02:03:35.386Z,-4.40
2018-02-27T02:04:37.038Z,-4.40
2018-02-27T02:06:38.644Z,-4.40
2018-02-27T02:08:18.826Z,-4.40
2018-02-27T02:09:20.237Z,-4.40
2018-02-27T02:10:45.020Z,-4.40
2018-02-27T02:11:46.822Z,-4.50
2018-02-27T02:13:32.305Z,-4.40
2018-02-27T02:14:35.521Z,-4.40
2018-02-27T02:15:37.834Z,-4.40
2018-02-27T02:16:39.353Z,-4.40
2018-02-27T02:17:42.213Z,-4.40
2018-02-27T02:18:44.341Z,-4.40
2018-02-27T02:19:45.730Z,-4.40
2018-02-27T02:20:47.130Z,-4.50
2018-02-27T02:22:10.018Z,-4.40
2018-02-27T02:23:11.678Z,-4.40
2018-02-27T02:24:13.088Z,-4.40
2018-02-27T02:25:14.478Z,-4.50
2018-02-27T02:26:16.622Z,-4.40
2018-02-27T02:28:51.799Z,-4.40
2018-02-27T02:29:53.225Z,-4.40
2018-02-27T02:30:54.862Z,-4.40
2018-02-27T02:31:56.408Z,-4.40
2018-02-27T02:33:45.688Z,-4.40
2018-02-27T02:34:47.098Z,-4.40
2018-02-27T02:35:48.492Z,-4.40
2018-02-27T02:36:50.638Z,-4.40
2018-02-27T02:37:52.038Z,-4.40
2018-02-27T02:38:54.430Z,-4.40
2018-02-27T02:42:23.239Z,-4.40
2018-02-27T02:43:24.889Z,-4.40
2018-02-27T02:44:27.829Z,-4.40
2018-02-27T02:45:29.514Z,-4.40
2018-02-27T02:46:33.206Z,-4.40
2018-02-27T02:47:35.125Z,-4.40
2018-02-27T02:48:36.990Z,-4.40
2018-02-27T02:49:39.257Z,-4.40
2018-02-27T02:50:40.678Z,-4.40
2018-02-27T02:51:42.062Z,-4.40
2018-02-27T02:52:43.486Z,-4.40
2018-02-27T02:53:44.886Z,-4.40
2018-02-27T02:54:46.275Z,-4.30
2018-02-27T02:55:47.698Z,-4.40
2018-02-27T02:56:50.582Z,-4.40
2018-02-27T02:58:23.389Z,-4.30
2018-02-27T02:59:25.069Z,-4.30
2018-02-27T03:00:26.641Z,-4.30
2018-02-27T03:01:28.795Z,-4.30
2018-02-27T03:02:31.851Z,-4.30
2018-02-27T03:03:33.717Z,-4.20
2018-02-27T03:04:36.110Z,-4.20
2018-02-27T03:05:37.812Z,-4.20
2018-02-27T03:06:39.326Z,-4.20
2018-02-27T03:07:41.833Z,-4.30
2018-02-27T03:08:43.243Z,-4.20
2018-02-27T03:09:44.665Z,-4.20
2018-02-27T03:10:46.034Z,-4.20
2018-02-27T03:11:47.834Z,-4.30
2018-02-27T03:12:49.230Z,-4.20
2018-02-27T03:13:50.614Z,-4.20
2018-02-27T03:14:52.018Z,-4.30
2018-02-27T03:15:55.018Z,-4.30
2018-02-27T03:16:58.226Z,-4.30
2018-02-27T03:18:00.369Z,-4.20
2018-02-27T03:19:03.356Z,-4.20
2018-02-27T03:20:05.201Z,-4.20
2018-02-27T03:21:06.937Z,-4.20
2018-02-27T03:22:08.965Z,-4.20
2018-02-27T03:23:10.367Z,-4.20
2018-02-27T03:24:11.749Z,-4.20
2018-02-27T03:25:13.162Z,-4.20
2018-02-27T03:29:00.472Z,-4.20
2018-02-27T03:31:05.624Z,-4.20
2018-02-27T03:32:07.863Z,-4.20
2018-02-27T03:33:09.461Z,-4.20
2018-02-27T03:35:00.670Z,-4.30
2018-02-27T03:36:03.171Z,-4.20
2018-02-27T03:37:04.985Z,-4.20
2018-02-27T03:38:06.593Z,-4.20
2018-02-27T03:39:09.222Z,-4.20
2018-02-27T03:40:10.613Z,-5.80
2018-02-27T03:41:12.005Z,-4.20
2018-02-27T03:42:13.394Z,-4.20
2018-02-27T03:43:14.762Z,-4.20
2018-02-27T03:44:16.434Z,-4.20
2018-02-27T03:45:18.554Z,-4.20
2018-02-27T03:46:19.961Z,-4.20
2018-02-27T03:47:21.360Z,-4.20
2018-02-27T03:48:22.734Z,-4.20
2018-02-27T03:49:24.266Z,-4.20
2018-02-27T03:50:25.779Z,-4.20
2018-02-27T03:52:04.356Z,-4.20
2018-02-27T03:55:12.502Z,-4.20
2018-02-27T03:56:15.377Z,-4.20
2018-02-27T03:57:16.755Z,-4.20
2018-02-27T03:59:21.986Z,-4.20
2018-02-27T04:00:23.714Z,-4.20
2018-02-27T04:01:25.305Z,-4.20
2018-02-27T04:04:07.102Z,-4.20
2018-02-27T04:05:08.697Z,-4.20
2018-02-27T04:06:10.202Z,-4.20
2018-02-27T04:07:11.599Z,-4.20
2018-02-27T04:08:13.010Z,-4.20
2018-02-27T04:09:14.418Z,-4.20
2018-02-27T04:10:16.595Z,-4.20
2018-02-27T04:11:18.261Z,-4.20
2018-02-27T04:13:23.508Z,-4.20
2018-02-27T04:14:25.241Z,-4.20
2018-02-27T04:15:26.666Z,-4.20
2018-02-27T04:16:28.067Z,-4.20
2018-02-27T04:17:29.465Z,-4.20
2018-02-27T04:18:31.229Z,-4.20
2018-02-27T04:19:32.965Z,-4.20
2018-02-27T04:20:59.922Z,-4.20
2018-02-27T04:22:02.376Z,-4.20
2018-02-27T04:23:04.128Z,-4.10
2018-02-27T04:24:05.893Z,-4.20
2018-02-27T04:25:57.013Z,-4.10
2018-02-27T04:29:50.926Z,-4.10
2018-02-27T04:30:52.318Z,-4.10
2018-02-27T04:31:54.677Z,-4.10
2018-02-27T04:35:22.846Z,-4.10
2018-02-27T04:36:24.424Z,-4.10
2018-02-27T04:37:26.982Z,-4.10
2018-02-27T04:38:28.382Z,-4.20
2018-02-27T04:39:29.773Z,-4.10
2018-02-27T04:40:32.464Z,-4.20
2018-02-27T04:43:26.970Z,-4.10
2018-02-27T04:46:45.909Z,-4.10
2018-02-27T04:47:47.316Z,-4.10
2018-02-27T04:48:48.726Z,-4.20
2018-02-27T04:50:54.066Z,-4.20
2018-02-27T04:52:42.565Z,-4.20
2018-02-27T04:53:44.690Z,-4.20
2018-02-27T04:54:46.085Z,-4.20
2018-02-27T04:55:48.218Z,-4.20
2018-02-27T04:56:49.622Z,-4.20
2018-02-27T04:57:51.026Z,-4.30
2018-02-27T04:58:52.426Z,-4.30
2018-02-27T04:59:53.842Z,-4.30
2018-02-27T05:00:56.882Z,-4.30
2018-02-27T05:01:58.269Z,-4.30
2018-02-27T05:02:59.680Z,-4.30
2018-02-27T05:04:01.082Z,-4.30
2018-02-27T05:05:03.767Z,-4.30
2018-02-27T05:06:05.597Z,-4.30
2018-02-27T05:07:07.357Z,-4.30
2018-02-27T05:08:53.718Z,-4.40
2018-02-27T05:09:55.346Z,-4.30
2018-02-27T05:10:56.777Z,-4.40
2018-02-27T05:11:58.210Z,-4.40
2018-02-27T05:13:00.357Z,-4.40
2018-02-27T05:14:03.214Z,-4.40
2018-02-27T05:15:06.524Z,-4.40
2018-02-27T05:16:08.117Z,-4.40
2018-02-27T05:17:09.528Z,-4.40
2018-02-27T05:20:20.127Z,-4.40
2018-02-27T05:21:21.524Z,-4.40
2018-02-27T05:22:23.000Z,-4.40
2018-02-27T05:23:25.328Z,-4.40
2018-02-27T05:24:26.721Z,-4.40
2018-02-27T05:25:28.502Z,-4.40
2018-02-27T05:27:34.285Z,-4.50
2018-02-27T05:28:37.359Z,-4.50
2018-02-27T05:30:43.250Z,-4.50
2018-02-27T05:31:44.643Z,-4.50
2018-02-27T05:32:46.037Z,-4.50
2018-02-27T05:33:48.145Z,-4.50
2018-02-27T05:34:49.524Z,-4.50
2018-02-27T05:36:14.811Z,-4.50
2018-02-27T05:37:16.202Z,-4.50
2018-02-27T05:38:18.311Z,-4.50
2018-02-27T05:39:39.774Z,-4.50
2018-02-27T05:40:41.172Z,-4.60
2018-02-27T05:41:42.578Z,-4.60
2018-02-27T05:42:43.969Z,-4.60
2018-02-27T05:44:49.285Z,-4.60
2018-02-27T05:46:53.926Z,-4.60
2018-02-27T05:47:55.463Z,-4.60
2018-02-27T05:48:56.874Z,-4.60
2018-02-27T05:49:58.274Z,-4.60
2018-02-27T05:50:59.662Z,-4.60
2018-02-27T05:52:03.696Z,-4.60
2018-02-27T05:53:05.565Z,-4.50
2018-02-27T05:54:07.115Z,-4.50
2018-02-27T05:55:09.344Z,-4.60
2018-02-27T05:56:11.462Z,-4.50
2018-02-27T05:57:13.614Z,-4.50
2018-02-27T05:58:14.993Z,-4.60
2018-02-27T05:59:16.408Z,-4.50
2018-02-27T06:00:17.792Z,-4.50
2018-02-27T06:02:04.664Z,-4.50
2018-02-27T06:03:06.395Z,-4.50
2018-02-27T06:04:55.142Z,-4.50
2018-02-27T06:05:56.464Z,-4.50
2018-02-27T06:06:58.605Z,-4.50
2018-02-27T06:08:00.018Z,-4.50
2018-02-27T06:09:02.748Z,-4.50
2018-02-27T06:10:04.744Z,-4.50
2018-02-27T06:11:06.470Z,-4.50
2018-02-27T06:12:08.034Z,-4.50
2018-02-27T06:13:09.502Z,-4.50
2018-02-27T06:14:12.426Z,-4.50
2018-02-27T06:15:13.818Z,-4.60
2018-02-27T06:16:15.210Z,-4.60
2018-02-27T06:17:16.597Z,-4.50
2018-02-27T06:18:17.974Z,-4.50
2018-02-27T06:19:19.650Z,-4.60
2018-02-27T06:20:21.046Z,-4.60
2018-02-27T06:22:49.960Z,-4.50
2018-02-27T06:23:51.386Z,-4.50
2018-02-27T06:24:53.186Z,-4.60
2018-02-27T06:26:57.837Z,-4.60
2018-02-27T06:27:59.213Z,-4.60
2018-02-27T06:29:02.212Z,-4.60
2018-02-27T06:31:07.812Z,-4.60
2018-02-27T06:32:09.492Z,-4.60
2018-02-27T06:33:10.926Z,-4.60
2018-02-27T06:36:14.086Z,-4.50
2018-02-27T06:38:20.074Z,-4.60
2018-02-27T06:39:22.216Z,-4.60
2018-02-27T06:40:23.855Z,-4.60
2018-02-27T06:42:28.742Z,-4.60
2018-02-27T06:43:30.147Z,-4.60
2018-02-27T06:46:39.509Z,-4.70
2018-02-27T06:47:40.898Z,-4.70
2018-02-27T06:48:43.046Z,-4.70
2018-02-27T06:49:45.182Z,-4.70
2018-02-27T06:50:46.626Z,-4.70
2018-02-27T06:51:49.162Z,-4.70
2018-02-27T06:52:51.331Z,-4.70
2018-02-27T06:53:52.752Z,-4.70
2018-02-27T06:56:32.836Z,-4.70
2018-02-27T06:57:34.774Z,-4.70
2018-02-27T06:58:36.778Z,-4.60
2018-02-27T06:59:38.618Z,-4.60
2018-02-27T07:01:43.500Z,-4.60
2018-02-27T07:04:52.250Z,-4.60
2018-02-27T07:05:53.892Z,-4.60
2018-02-27T07:06:55.707Z,-4.60
2018-02-27T07:07:58.002Z,-4.60
2018-02-27T07:11:07.800Z,-4.60
2018-02-27T07:12:09.700Z,-4.70
2018-02-27T07:13:11.880Z,-4.70
2018-02-27T07:14:14.903Z,-4.70
2018-02-27T07:15:17.198Z,-4.70
2018-02-27T07:16:18.680Z,-4.70
2018-02-27T07:18:23.496Z,-4.80
2018-02-27T07:20:29.067Z,-4.80
2018-02-27T07:21:30.455Z,-4.80
2018-02-27T07:23:36.232Z,-4.80
2018-02-27T07:24:37.774Z,-4.80
2018-02-27T07:26:42.270Z,-4.80
2018-02-27T07:27:43.656Z,-4.90
2018-02-27T07:28:45.094Z,-4.80
2018-02-27T07:29:46.486Z,-4.80
2018-02-27T07:31:51.308Z,-4.80
2018-02-27T07:33:57.648Z,-4.90
2018-02-27T07:34:59.043Z,-4.90
2018-02-27T07:37:14.342Z,-4.90
2018-02-27T07:39:18.839Z,-4.80
2018-02-27T07:41:23.388Z,-4.80
2018-02-27T07:42:24.810Z,-4.80
2018-02-27T07:43:26.539Z,-4.80
2018-02-27T07:45:07.778Z,-4.80
2018-02-27T07:47:13.408Z,-4.80
2018-02-27T07:50:21.053Z,-4.80
2018-02-27T07:51:22.450Z,-4.80
2018-02-27T07:52:23.854Z,-4.80
2018-02-27T07:53:25.936Z,-4.90
2018-02-27T07:54:27.554Z,-4.80
2018-02-27T07:57:07.380Z,-4.80
2018-02-27T07:59:12.094Z,-4.90
2018-02-27T08:00:13.492Z,-4.90
2018-02-27T08:01:15.277Z,-4.90
2018-02-27T08:02:17.440Z,-4.90
2018-02-27T08:03:18.850Z,-4.80
2018-02-27T08:04:20.243Z,-4.80
2018-02-27T08:07:28.578Z,-4.80
2018-02-27T08:09:34.439Z,-4.90
2018-02-27T08:10:36.915Z,-4.80
2018-02-27T08:13:45.048Z,-4.80
2018-02-27T08:15:49.531Z,-4.80
2018-02-27T08:17:54.329Z,-4.80
2018-02-27T08:18:56.136Z,-4.70
2018-02-27T08:19:58.048Z,-4.70
2018-02-27T08:20:59.484Z,-4.70
2018-02-27T08:22:00.870Z,-4.70
2018-02-27T08:23:02.998Z,-4.70
2018-02-27T08:24:05.306Z,-4.70
2018-02-27T08:25:07.362Z,-4.70
2018-02-27T08:28:15.314Z,-4.70
2018-02-27T08:30:19.835Z,-4.70
2018-02-27T08:33:29.163Z,-4.80
2018-02-27T08:34:33.393Z,-4.70
2018-02-27T08:35:35.704Z,-4.70
2018-02-27T08:37:42.024Z,-4.70
2018-02-27T08:38:43.438Z,-4.70
2018-02-27T08:41:14.699Z,-4.70
2018-02-27T08:42:16.865Z,-4.70
2018-02-27T08:44:21.539Z,-4.60
2018-02-27T08:45:24.054Z,-4.60
2018-02-27T08:47:30.068Z,-4.60
2018-02-27T08:48:31.475Z,-4.60
2018-02-27T08:51:40.814Z,-4.50
2018-02-27T08:52:42.222Z,-4.50
2018-02-27T08:53:43.619Z,-4.50
2018-02-27T08:54:45.035Z,-4.40
2018-02-27T08:55:46.441Z,-4.40
2018-02-27T08:56:47.855Z,-4.40
2018-02-27T08:58:53.082Z,-4.40
2018-02-27T08:59:55.228Z,-4.40
2018-02-27T09:01:36.374Z,-4.30
2018-02-27T09:02:38.534Z,-4.30
2018-02-27T09:04:44.128Z,-4.30
2018-02-27T09:05:47.036Z,-4.30
2018-02-27T09:06:48.430Z,-4.30
2018-02-27T09:09:56.771Z,-4.20
2018-02-27T09:12:01.411Z,-4.20
2018-02-27T09:13:04.057Z,-4.10
2018-02-27T09:14:07.574Z,-4.10
2018-02-27T09:15:10.516Z,-4.10
2018-02-27T09:18:18.217Z,-4.00
2018-02-27T09:20:53.571Z,-4.00
2018-02-27T09:22:58.843Z,-3.90
2018-02-27T09:29:10.406Z,-3.90
2018-02-27T09:30:12.030Z,-3.80
2018-02-27T09:32:18.323Z,-3.80
2018-02-27T09:33:19.718Z,-3.80
2018-02-27T09:35:25.499Z,-3.80
2018-02-27T09:36:26.946Z,-3.80
2018-02-27T09:39:36.320Z,-3.90
2018-02-27T09:40:38.780Z,-3.80
2018-02-27T09:41:40.450Z,-3.80
2018-02-27T09:44:49.334Z,-3.80
2018-02-27T09:45:50.725Z,-3.80
2018-02-27T09:46:52.138Z,-3.70
2018-02-27T09:47:53.625Z,-3.70
2018-02-27T09:49:58.461Z,-3.70
2018-02-27T09:51:00.228Z,-3.70
2018-02-27T09:52:04.560Z,-3.70
2018-02-27T09:53:06.756Z,-3.60
2018-02-27T09:54:08.517Z,-3.70
2018-02-27T09:55:10.238Z,-3.70
2018-02-27T09:56:11.654Z,-3.70
2018-02-27T09:57:14.144Z,-3.60
2018-02-27T09:59:18.654Z,-3.60
2018-02-27T10:00:21.170Z,-3.60
2018-02-27T10:03:29.608Z,-3.50
2018-02-27T10:04:31.046Z,-3.50
2018-02-27T10:05:55.102Z,-3.50
2018-02-27T10:06:56.525Z,-3.50
2018-02-27T10:07:57.931Z,-3.50
2018-02-27T10:09:00.103Z,-3.50
2018-02-27T10:12:09.136Z,-3.50
2018-02-27T10:14:13.862Z,-3.50
2018-02-27T10:18:37.764Z,-3.50
2018-02-27T10:20:42.671Z,-3.40
2018-02-27T10:21:44.082Z,-3.50
2018-02-27T10:24:22.636Z,-3.90
2018-02-27T10:25:24.345Z,-3.90
2018-02-27T10:27:29.695Z,-3.80
2018-02-27T10:30:38.697Z,-3.80
2018-02-27T10:32:43.158Z,-3.80
2018-02-27T10:33:44.557Z,-3.80
2018-02-27T10:34:46.690Z,-3.80
2018-02-27T10:36:51.486Z,-3.70
2018-02-27T10:39:19.487Z,-3.70
2018-02-27T10:42:27.708Z,-3.70
2018-02-27T10:43:29.925Z,-3.70
2018-02-27T10:44:31.334Z,-3.60
2018-02-27T10:52:28.166Z,-3.60
2018-02-27T10:53:29.546Z,-3.70
2018-02-27T10:56:38.894Z,-3.90
2018-02-27T10:57:40.354Z,-3.90
2018-02-27T10:58:41.817Z,-3.90
2018-02-27T10:59:43.214Z,-3.90
2018-02-27T11:01:55.770Z,-3.90
2018-02-27T11:02:57.548Z,-3.90
2018-02-27T11:05:46.202Z,-3.80
2018-02-27T11:06:47.597Z,-4.60
2018-02-27T11:07:48.990Z,-3.80
2018-02-27T11:08:52.122Z,-3.80
2018-02-27T11:09:53.529Z,-3.80
2018-02-27T11:10:55.416Z,-3.80
2018-02-27T11:11:57.139Z,-3.80
2018-02-27T11:12:58.718Z,-3.70
2018-02-27T11:14:03.088Z,-3.70
2018-02-27T11:15:05.277Z,-3.70
2018-02-27T11:16:07.427Z,-3.70
2018-02-27T11:18:11.926Z,-3.60
2018-02-27T11:19:13.314Z,-3.50
2018-02-27T11:20:14.713Z,-3.50
2018-02-27T11:21:16.109Z,-3.50
2018-02-27T11:22:18.986Z,-3.50
2018-02-27T11:24:24.610Z,-3.50
2018-02-27T11:25:26.194Z,-3.50
2018-02-27T11:26:27.823Z,-3.50
2018-02-27T11:37:59.202Z,-3.70
2018-02-27T11:39:00.597Z,-3.70
2018-02-27T11:40:02.950Z,-3.70
2018-02-27T11:41:04.950Z,-3.70
2018-02-27T11:42:06.909Z,-3.70
2018-02-27T11:43:08.634Z,-3.80
2018-02-27T11:44:11.165Z,-3.80
2018-02-27T11:45:12.562Z,-3.70
2018-02-27T11:46:13.962Z,-3.70
2018-02-27T11:47:16.098Z,-3.70
2018-02-27T11:49:18.760Z,-3.60
2018-02-27T11:50:20.154Z,-3.60
2018-02-27T11:51:21.544Z,-3.60
2018-02-27T11:52:23.725Z,-3.60
2018-02-27T11:53:25.332Z,-3.60
2018-02-27T11:54:27.544Z,-3.60
2018-02-27T11:55:28.967Z,-3.60
2018-02-27T11:56:31.102Z,-3.60
2018-02-27T11:57:34.008Z,-3.60
2018-02-27T11:59:39.318Z,-3.50
2018-02-27T12:00:41.446Z,-3.50
2018-02-27T12:01:42.842Z,-3.50
2018-02-27T12:02:44.974Z,-3.50
2018-02-27T12:03:46.374Z,-3.50
2018-02-27T12:04:48.046Z,-3.50
2018-02-27T12:06:53.777Z,-3.50
2018-02-27T12:07:55.422Z,-3.50
2018-02-27T12:08:56.960Z,-3.50
2018-02-27T12:09:58.366Z,-3.50
2018-02-27T12:12:04.086Z,-3.40
2018-02-27T12:13:06.330Z,-3.40
2018-02-27T12:14:08.044Z,-3.40
2018-02-27T12:15:09.707Z,-3.40
2018-02-27T12:16:11.102Z,-3.40
2018-02-27T12:17:12.499Z,-3.40
2018-02-27T12:18:14.650Z,-3.40
2018-02-27T12:19:58.426Z,-3.40
2018-02-27T12:23:21.436Z,-3.40
2018-02-27T12:25:03.862Z,-3.30
2018-02-27T12:26:07.136Z,-3.40
2018-02-27T12:27:08.768Z,-3.30
2018-02-27T12:28:11.303Z,-3.30
2018-02-27T12:30:57.811Z,-3.30
2018-02-27T12:31:59.964Z,-3.30
2018-02-27T12:33:04.395Z,-3.40
2018-02-27T12:34:06.419Z,-3.40
2018-02-27T12:35:08.448Z,-3.30
2018-02-27T12:36:09.974Z,-3.30
2018-02-27T12:37:11.363Z,-3.30
2018-02-27T12:38:12.782Z,-3.40
2018-02-27T12:39:14.174Z,-3.30
2018-02-27T12:42:30.923Z,-3.30
2018-02-27T12:44:37.015Z,-3.30
2018-02-27T12:45:39.523Z,-3.30
2018-02-27T12:46:40.902Z,-3.30
2018-02-27T12:47:42.331Z,-3.40
2018-02-27T12:48:44.462Z,-3.30
2018-02-27T12:49:45.867Z,-3.30
2018-02-27T12:50:47.263Z,-3.30
2018-02-27T12:51:48.660Z,-3.30
2018-02-27T12:52:50.059Z,-3.20
2018-02-27T12:53:51.490Z,-3.30
2018-02-27T12:54:53.350Z,-3.30
2018-02-27T12:55:54.970Z,-3.40
2018-02-27T12:56:56.598Z,-3.40
2018-02-27T12:57:58.037Z,-3.40
2018-02-27T12:58:59.461Z,-3.40
2018-02-27T13:00:00.866Z,-3.40
2018-02-27T13:01:04.593Z,-3.40
2018-02-27T13:02:06.710Z,-3.40
2018-02-27T13:03:08.243Z,-3.40
2018-02-27T13:04:09.819Z,-3.40
2018-02-27T13:05:11.209Z,-3.40
2018-02-27T13:06:46.209Z,-3.40
2018-02-27T13:07:47.592Z,-3.40
2018-02-27T13:08:49.003Z,-3.40
2018-02-27T13:09:51.139Z,-3.40
2018-02-27T13:10:52.525Z,-3.40
2018-02-27T13:11:54.894Z,-3.40
2018-02-27T13:12:56.310Z,-3.40
2018-02-27T13:13:57.974Z,-3.40
2018-02-27T13:14:59.354Z,-3.40
2018-02-27T13:16:02.139Z,-3.40
2018-02-27T13:17:05.126Z,-3.30
2018-02-27T13:18:06.877Z,-3.30
2018-02-27T13:19:08.961Z,-3.30
2018-02-27T13:20:11.112Z,-3.30
2018-02-27T13:21:12.479Z,-3.30
2018-02-27T13:22:13.866Z,-3.30
2018-02-27T13:23:16.750Z,-3.30
2018-02-27T13:24:18.155Z,-3.30
2018-02-27T13:25:19.559Z,-3.20
2018-02-27T13:26:20.960Z,-3.20
2018-02-27T13:27:23.918Z,-3.20
2018-02-27T13:28:25.749Z,-3.20
2018-02-27T13:29:27.235Z,-3.20
2018-02-27T13:30:28.642Z,-3.20
2018-02-27T13:31:30.011Z,-3.20
2018-02-27T13:32:31.948Z,-3.20
2018-02-27T13:33:34.732Z,-3.20
2018-02-27T13:34:36.710Z,-3.20
2018-02-27T13:35:38.388Z,-3.20
2018-02-27T13:36:39.916Z,-3.10
2018-02-27T13:37:41.310Z,-3.10
2018-02-27T13:38:42.694Z,-3.20
2018-02-27T13:39:44.088Z,-3.20
2018-02-27T13:40:45.462Z,-3.10
2018-02-27T13:41:46.848Z,-3.10
2018-02-27T13:43:52.083Z,-3.20
2018-02-27T13:44:53.553Z,-3.20
2018-02-27T13:45:55.361Z,-0.60
2018-02-27T13:46:57.404Z,-3.30
2018-02-27T13:47:58.822Z,-3.30
2018-02-27T13:49:04.002Z,-3.30
2018-02-27T13:50:03.597Z,-3.30
2018-02-27T13:51:06.929Z,-3.30
2018-02-27T13:52:08.673Z,-3.30
2018-02-27T13:53:10.499Z,-3.30
2018-02-27T13:54:12.015Z,-3.30
2018-02-27T13:55:13.761Z,-3.30
2018-02-27T13:56:16.670Z,-3.30
2018-02-27T13:57:18.085Z,-3.30
2018-02-27T13:58:19.495Z,-3.30
2018-02-27T13:59:21.640Z,-3.30
2018-02-27T14:00:23.316Z,-3.30
2018-02-27T14:01:24.820Z,-3.30
2018-02-27T14:02:26.716Z,-3.30
2018-02-27T14:03:28.388Z,-3.30
2018-02-27T14:04:29.795Z,-3.30
2018-02-27T14:05:31.217Z,-3.30
2018-02-27T14:06:34.140Z,-3.20
2018-02-27T14:07:36.753Z,-3.20
2018-02-27T14:08:38.493Z,-3.20
2018-02-27T14:09:41.198Z,-3.20
2018-02-27T14:12:08.540Z,-3.20
2018-02-27T14:13:10.095Z,-3.20
2018-02-27T14:14:11.499Z,-3.20
2018-02-27T14:16:16.719Z,-3.20
2018-02-27T14:17:18.122Z,-3.20
2018-02-27T14:18:19.522Z,-3.20
2018-02-27T14:19:20.902Z,-3.20
2018-02-27T14:20:22.297Z,-3.20
2018-02-27T14:21:23.691Z,-3.20
2018-02-27T14:23:33.867Z,-3.20
2018-02-27T14:24:36.790Z,-3.20
2018-02-27T14:25:38.860Z,-3.20
2018-02-27T14:26:41.067Z,-3.20
2018-02-27T14:28:45.549Z,-3.20
2018-02-27T14:29:47.695Z,-3.20
2018-02-27T14:31:11.019Z,-3.20
2018-02-27T14:32:12.440Z,-3.20
2018-02-27T14:34:18.082Z,-3.20
2018-02-27T14:35:19.486Z,-3.20
2018-02-27T14:36:21.988Z,-3.20
2018-02-27T14:37:23.403Z,-3.20
2018-02-27T14:38:24.925Z,-3.20
2018-02-27T14:39:27.863Z,-3.20
2018-02-27T14:40:29.979Z,-3.20
2018-02-27T14:41:32.074Z,-3.20
2018-02-27T14:44:52.248Z,-3.20
2018-02-27T14:45:53.661Z,-3.20
2018-02-27T14:49:21.230Z,-3.20
2018-02-27T14:53:18.062Z,-3.20
2018-02-27T14:55:22.651Z,-3.20
2018-02-27T14:56:24.080Z,-3.20
2018-02-27T14:57:25.488Z,-3.20
2018-02-27T15:00:13.083Z,-3.20
2018-02-27T15:01:14.518Z,-3.20
2018-02-27T15:03:06.511Z,-3.20
2018-02-27T15:04:08.607Z,-3.20
2018-02-27T15:05:11.129Z,-3.20
2018-02-27T15:07:03.391Z,-3.20
2018-02-27T15:08:06.579Z,-3.20
2018-02-27T15:09:08.324Z,-3.30
2018-02-27T15:10:10.277Z,-3.30
2018-02-27T15:11:12.041Z,-3.40
2018-02-27T15:12:13.449Z,-3.30
2018-02-27T15:13:14.873Z,-3.30
2018-02-27T15:15:19.341Z,-3.30
2018-02-27T15:17:24.657Z,-3.30
2018-02-27T15:19:31.119Z,-3.30
2018-02-27T15:23:39.545Z,-3.20
2018-02-27T15:24:42.032Z,-3.30
2018-02-27T15:25:44.096Z,-3.30
2018-02-27T15:26:45.531Z,-3.30
2018-02-27T15:27:46.937Z,-3.30
2018-02-27T15:28:48.359Z,-3.30
2018-02-27T15:29:50.863Z,-3.30
2018-02-27T15:31:55.759Z,-3.30
2018-02-27T15:34:01.166Z,-3.30
2018-02-27T15:36:07.439Z,-3.40
2018-02-27T15:38:33.850Z,-5.30
2018-02-27T15:40:39.319Z,-3.40
2018-02-27T15:41:41.065Z,-3.40
2018-02-27T15:43:45.578Z,-3.40
2018-02-27T15:44:46.987Z,-3.40
2018-02-27T15:46:51.483Z,-3.40
2018-02-27T15:47:52.890Z,-3.40
2018-02-27T15:48:54.290Z,-3.40
2018-02-27T15:49:55.729Z,-3.40
2018-02-27T15:50:58.248Z,-3.40
2018-02-27T15:51:59.988Z,-3.40
2018-02-27T15:56:12.738Z,-3.40
2018-02-27T15:57:14.686Z,-3.40
2018-02-27T15:58:16.122Z,-3.40
2018-02-27T16:00:21.725Z,-3.40
2018-02-27T16:01:23.117Z,-3.40
2018-02-27T16:02:24.529Z,-3.40
2018-02-27T16:03:25.932Z,-3.40
2018-02-27T16:06:36.441Z,-3.40
2018-02-27T16:08:42.055Z,-3.40
2018-02-27T16:09:44.719Z,-3.30
2018-02-27T16:10:46.111Z,-3.30
2018-02-27T16:12:51.721Z,-3.30
2018-02-27T16:13:53.201Z,-3.30
2018-02-27T16:18:06.679Z,-3.30
2018-02-27T16:19:08.874Z,-3.40
2018-02-27T16:20:11.469Z,-3.30
2018-02-27T16:21:53.355Z,-3.30
2018-02-27T16:22:54.749Z,-3.30
2018-02-27T16:26:16.662Z,-3.30
2018-02-27T16:27:18.108Z,-3.30
2018-02-27T16:32:33.643Z,-3.40
2018-02-27T16:33:39.544Z,-3.50
2018-02-27T16:37:50.336Z,-3.40
2018-02-27T16:38:51.768Z,-3.40
2018-02-27T16:40:38.036Z,-3.40
2018-02-27T16:41:39.901Z,-3.50
2018-02-27T16:44:48.187Z,-3.50
2018-02-27T16:51:08.127Z,-3.70
2018-02-27T16:52:10.010Z,-3.70
2018-02-27T16:54:15.773Z,-3.70
2018-02-27T16:58:26.864Z,-3.80
2018-02-27T16:59:28.363Z,-3.90
2018-02-27T17:01:38.560Z,-3.90
2018-02-27T17:04:52.949Z,-4.00
2018-02-27T17:13:17.372Z,-4.10
2018-02-27T17:14:20.883Z,-4.10
2018-02-27T17:17:43.406Z,-4.20
2018-02-27T17:18:45.927Z,-4.10
2018-02-27T17:20:09.860Z,-4.20
2018-02-27T17:23:57.424Z,-4.20
2018-02-27T17:27:08.217Z,-4.20
2018-02-27T17:30:16.887Z,-4.20
2018-02-27T17:32:22.873Z,-4.30
2018-02-27T17:34:19.115Z,-4.20
2018-02-27T17:35:20.541Z,-4.30
2018-02-27T17:36:21.948Z,-4.30
2018-02-27T17:37:23.361Z,-4.30
2018-02-27T17:39:28.633Z,-4.30
2018-02-27T17:44:45.660Z,-4.30
2018-02-27T17:45:47.070Z,-4.40
2018-02-27T17:46:48.488Z,-4.30
2018-02-27T17:48:52.985Z,-4.40
2018-02-27T17:55:14.093Z,-4.50
2018-02-27T17:56:17.015Z,-4.50
2018-02-27T17:57:18.401Z,-4.50
2018-02-27T17:58:19.777Z,-4.60
2018-02-27T17:59:21.920Z,-4.60
2018-02-27T18:00:26.093Z,-4.70
2018-02-27T18:01:27.956Z,-4.70
2018-02-27T18:02:29.525Z,-4.70
2018-02-27T18:04:36.427Z,-4.80
2018-02-27T18:06:41.962Z,-4.80
2018-02-27T18:08:46.488Z,-4.80
2018-02-27T18:09:47.913Z,-4.80
2018-02-27T18:12:55.916Z,-4.80
2018-02-27T18:13:58.071Z,-4.80
2018-02-27T18:14:59.470Z,-4.80
2018-02-27T18:16:00.930Z,-4.80
2018-02-27T18:17:05.538Z,-4.80
2018-02-27T18:19:11.000Z,-4.80
2018-02-27T18:21:15.745Z,-4.90
2018-02-27T18:22:17.141Z,-5.00
2018-02-27T18:24:21.654Z,-5.10